Wetterdaten: Woche 14.05.12 - 20.05.12 (KW20)
Datum Zeit Temperatur Luftfeuchte Luftdruck Niederschlag Windrichtung Sonnenschein Solar Wind
14.05.2012 00:00 4,2 C 78 % 1023,1 hPa 0,0 l/m NO 0,00 h 0 W/m 2,0 km/h (1 Bft)
14.05.2012 01:00 3,6 C 80 % 1022,7 hPa 0,0 l/m NO 0,00 h 0 W/m 3,7 km/h (1 Bft)
14.05.2012 02:00 3,3 C 80 % 1022,3 hPa 0,0 l/m N 0,00 h 0 W/m 5,6 km/h (1 Bft)
14.05.2012 03:00 2,9 C 81 % 1021,9 hPa 0,0 l/m N 0,00 h 0 W/m 3,2 km/h (1 Bft)
14.05.2012 04:00 2,2 C 85 % 1021,6 hPa 0,0 l/m N 0,00 h 0 W/m 2,0 km/h (1 Bft)
14.05.2012 05:00 1,8 C 86 % 1021,2 hPa 0,0 l/m N-NW 0,08 h 7 W/m 6,3 km/h (2 Bft)
14.05.2012 06:00 1,7 C 88 % 1021,3 hPa 0,0 l/m N-NW 0,00 h 40 W/m 6,3 km/h (2 Bft)
14.05.2012 07:00 3,6 C 83 % 1021,1 hPa 0,0 l/m N 0,92 h 193 W/m 6,1 km/h (2 Bft)
14.05.2012 08:00 5,7 C 77 % 1020,9 hPa 0,0 l/m N 1,00 h 376 W/m 6,3 km/h (2 Bft)
14.05.2012 09:00 8,3 C 69 % 1020,6 hPa 0,0 l/m NO 1,00 h 552 W/m 8,0 km/h (2 Bft)
14.05.2012 10:00 10,9 C 51 % 1020,2 hPa 0,0 l/m NO 1,00 h 714 W/m 10,8 km/h (2 Bft)
14.05.2012 11:00 12,0 C 45 % 1019,5 hPa 0,0 l/m NO 1,00 h 830 W/m 14,0 km/h (3 Bft)
14.05.2012 12:00 12,8 C 42 % 1018,9 hPa 0,0 l/m NO 1,00 h 908 W/m 14,4 km/h (3 Bft)
14.05.2012 13:00 13,6 C 39 % 1018,1 hPa 0,0 l/m O-SO 1,00 h 929 W/m 13,7 km/h (3 Bft)
14.05.2012 14:00 14,3 C 39 % 1017,2 hPa 0,0 l/m SO 1,00 h 893 W/m 10,6 km/h (2 Bft)
14.05.2012 15:00 15,1 C 36 % 1016,3 hPa 0,0 l/m N-NO 1,00 h 822 W/m 11,4 km/h (2 Bft)
14.05.2012 16:00 15,5 C 36 % 1015,5 hPa 0,0 l/m O-SO 1,00 h 693 W/m 11,4 km/h (2 Bft)
14.05.2012 17:00 15,4 C 34 % 1014,8 hPa 0,0 l/m NO 1,00 h 529 W/m 9,9 km/h (2 Bft)
14.05.2012 18:00 14,8 C 37 % 1014,4 hPa 0,0 l/m O-NO 0,58 h 206 W/m 5,9 km/h (2 Bft)
14.05.2012 19:00 13,6 C 43 % 1014,2 hPa 0,0 l/m N-NO 0,00 h 81 W/m 7,9 km/h (2 Bft)
14.05.2012 20:00 12,2 C 52 % 1014,2 hPa 0,0 l/m N-NO 0,42 h 32 W/m 3,6 km/h (1 Bft)
14.05.2012 21:00 9,6 C 66 % 1014,1 hPa 0,0 l/m N 0,00 h 0 W/m 0,8 km/h (0 Bft)
14.05.2012 22:00 8,1 C 71 % 1013,7 hPa 0,0 l/m N 0,00 h 0 W/m 0,4 km/h (0 Bft)
14.05.2012 23:00 7,1 C 74 % 1013,3 hPa 0,0 l/m N 0,00 h 0 W/m 1,5 km/h (1 Bft)
15.05.2012 00:00 6,9 C 76 % 1012,9 hPa 0,0 l/m N 0,00 h 0 W/m 0,8 km/h (0 Bft)
15.05.2012 01:00 6,4 C 79 % 1012,3 hPa 0,0 l/m N 0,00 h 0 W/m 0,5 km/h (0 Bft)
15.05.2012 02:00 5,2 C 81 % 1011,9 hPa 0,0 l/m N 0,00 h 0 W/m 3,2 km/h (1 Bft)
15.05.2012 03:00 4,4 C 84 % 1011,6 hPa 0,0 l/m N 0,00 h 0 W/m 0,9 km/h (0 Bft)
15.05.2012 04:00 3,5 C 87 % 1011,4 hPa 0,0 l/m N 0,00 h 0 W/m 0,1 km/h (0 Bft)
15.05.2012 05:00 2,6 C 90 % 1011,1 hPa 0,0 l/m N 0,00 h 6 W/m 0,3 km/h (0 Bft)
15.05.2012 06:00 2,5 C 92 % 1011,2 hPa 0,0 l/m N 0,00 h 41 W/m 0,7 km/h (0 Bft)
15.05.2012 07:00 5,4 C 85 % 1011,1 hPa 0,0 l/m N-NO 0,83 h 189 W/m 2,7 km/h (1 Bft)
15.05.2012 08:00 9,7 C 72 % 1010,6 hPa 0,0 l/m SW 1,00 h 363 W/m 13,0 km/h (3 Bft)
15.05.2012 09:00 12,5 C 61 % 1010,2 hPa 0,0 l/m SW 1,00 h 539 W/m 16,4 km/h (3 Bft)
15.05.2012 10:00 14,6 C 52 % 1009,6 hPa 0,0 l/m SW 0,92 h 684 W/m 20,2 km/h (4 Bft)
15.05.2012 11:00 15,4 C 49 % 1009,0 hPa 0,0 l/m W-SW 0,83 h 743 W/m 28,4 km/h (4 Bft)
15.05.2012 12:00 15,7 C 47 % 1008,3 hPa 0,0 l/m W 0,75 h 713 W/m 31,4 km/h (5 Bft)
15.05.2012 13:00 12,1 C 67 % 1008,0 hPa 0,2 l/m N-NW 0,17 h 260 W/m 19,7 km/h (3 Bft)
15.05.2012 14:00 12,6 C 61 % 1007,9 hPa 0,0 l/m W 0,17 h 342 W/m 26,6 km/h (4 Bft)
15.05.2012 15:00 10,7 C 74 % 1008,4 hPa 2,2 l/m W-NW 0,08 h 156 W/m 22,6 km/h (4 Bft)
15.05.2012 16:00 10,5 C 84 % 1008,1 hPa 0,0 l/m W-NW 0,17 h 286 W/m 11,8 km/h (2 Bft)
15.05.2012 17:00 8,3 C 84 % 1009,4 hPa 0,4 l/m NW 0,33 h 283 W/m 27,5 km/h (4 Bft)
15.05.2012 18:00 8,9 C 78 % 1009,6 hPa 0,0 l/m W 0,75 h 337 W/m 18,5 km/h (3 Bft)
15.05.2012 19:00 8,5 C 76 % 1010,3 hPa 0,0 l/m W-NW 0,50 h 125 W/m 17,7 km/h (3 Bft)
15.05.2012 20:00 6,2 C 81 % 1011,4 hPa 0,0 l/m W-NW 0,42 h 31 W/m 17,6 km/h (3 Bft)
15.05.2012 21:00 5,6 C 84 % 1011,9 hPa 0,0 l/m W-NW 0,00 h 0 W/m 10,3 km/h (2 Bft)
15.05.2012 22:00 5,4 C 86 % 1012,5 hPa 0,2 l/m W-NW 0,00 h 0 W/m 10,9 km/h (2 Bft)
15.05.2012 23:00 5,0 C 90 % 1013,3 hPa 0,4 l/m W 0,00 h 0 W/m 11,7 km/h (2 Bft)
16.05.2012 00:00 4,5 C 90 % 1013,9 hPa 0,4 l/m W 0,00 h 0 W/m 18,5 km/h (3 Bft)
16.05.2012 01:00 3,6 C 91 % 1015,0 hPa 0,2 l/m W 0,00 h 0 W/m 17,6 km/h (3 Bft)
16.05.2012 02:00 3,1 C 92 % 1015,5 hPa 0,0 l/m W-SW 0,00 h 0 W/m 15,2 km/h (3 Bft)
16.05.2012 03:00 3,3 C 91 % 1015,6 hPa 0,0 l/m W 0,00 h 0 W/m 19,3 km/h (3 Bft)
16.05.2012 04:00 3,4 C 90 % 1015,8 hPa 0,0 l/m W-SW 0,00 h 0 W/m 17,2 km/h (3 Bft)
16.05.2012 05:00 3,3 C 90 % 1016,0 hPa 0,0 l/m W-SW 0,00 h 5 W/m 16,8 km/h (3 Bft)
16.05.2012 06:00 3,3 C 91 % 1016,6 hPa 0,4 l/m W 0,00 h 13 W/m 15,3 km/h (3 Bft)
16.05.2012 07:00 3,5 C 93 % 1017,0 hPa 0,0 l/m W 0,00 h 54 W/m 12,1 km/h (2 Bft)
16.05.2012 08:00 4,6 C 91 % 1017,4 hPa 0,0 l/m W 0,00 h 130 W/m 17,7 km/h (3 Bft)
16.05.2012 09:00 5,5 C 86 % 1017,7 hPa 0,0 l/m W-NW 0,00 h 170 W/m 19,8 km/h (4 Bft)
16.05.2012 10:00 5,9 C 84 % 1018,3 hPa 0,0 l/m W-NW 0,00 h 207 W/m 21,0 km/h (4 Bft)
16.05.2012 11:00 7,0 C 79 % 1018,7 hPa 0,0 l/m NW 0,50 h 548 W/m 22,5 km/h (4 Bft)
16.05.2012 12:00 7,9 C 76 % 1019,2 hPa 0,0 l/m W-NW 0,50 h 516 W/m 21,6 km/h (4 Bft)
16.05.2012 13:00 8,1 C 76 % 1019,7 hPa 0,2 l/m N-NW 0,33 h 581 W/m 23,5 km/h (4 Bft)
16.05.2012 14:00 7,9 C 72 % 1020,3 hPa 0,0 l/m W-NW 0,58 h 684 W/m 23,7 km/h (4 Bft)
16.05.2012 15:00 8,9 C 66 % 1020,6 hPa 0,0 l/m W-NW 0,75 h 768 W/m 26,1 km/h (4 Bft)
16.05.2012 16:00 8,4 C 70 % 1021,0 hPa 0,0 l/m N-NO 0,67 h 516 W/m 19,2 km/h (3 Bft)
16.05.2012 17:00 9,9 C 61 % 1020,9 hPa 0,0 l/m W-NW 0,92 h 560 W/m 14,1 km/h (3 Bft)
16.05.2012 18:00 9,8 C 56 % 1021,4 hPa 0,0 l/m N-NW 0,33 h 162 W/m 16,6 km/h (3 Bft)
16.05.2012 19:00 7,1 C 66 % 1022,7 hPa 0,0 l/m NW 0,33 h 69 W/m 16,5 km/h (3 Bft)
16.05.2012 20:00 6,3 C 74 % 1023,3 hPa 0,0 l/m N-NW 0,08 h 19 W/m 7,4 km/h (2 Bft)
16.05.2012 21:00 4,8 C 81 % 1024,2 hPa 0,0 l/m N-NW 0,00 h 0 W/m 1,3 km/h (1 Bft)
16.05.2012 22:00 3,2 C 88 % 1024,7 hPa 0,0 l/m N 0,00 h 0 W/m 0,8 km/h (0 Bft)
16.05.2012 23:00 2,3 C 91 % 1025,1 hPa 0,0 l/m N 0,00 h 0 W/m 0,4 km/h (0 Bft)
17.05.2012 00:00 2,7 C 92 % 1025,2 hPa 0,0 l/m N 0,00 h 0 W/m 0,4 km/h (0 Bft)
17.05.2012 01:00 3,4 C 92 % 1025,0 hPa 0,0 l/m N 0,00 h 0 W/m 1,1 km/h (0 Bft)
17.05.2012 02:00 2,8 C 94 % 1024,8 hPa 0,0 l/m N 0,00 h 0 W/m 1,2 km/h (1 Bft)
17.05.2012 03:00 2,0 C 96 % 1024,5 hPa 0,0 l/m N 0,00 h 0 W/m 0,8 km/h (0 Bft)
17.05.2012 04:00 2,4 C 96 % 1024,1 hPa 0,0 l/m N 0,00 h 0 W/m 1,3 km/h (1 Bft)
17.05.2012 05:00 2,2 C 96 % 1024,1 hPa 0,0 l/m N 0,00 h 5 W/m 1,9 km/h (1 Bft)
17.05.2012 06:00 2,1 C 97 % 1024,0 hPa 0,0 l/m N-NW 0,00 h 21 W/m 3,6 km/h (1 Bft)
17.05.2012 07:00 2,4 C 97 % 1023,8 hPa 0,0 l/m N 0,00 h 62 W/m 3,1 km/h (1 Bft)
17.05.2012 08:00 3,6 C 97 % 1023,7 hPa 0,0 l/m N-NW 0,08 h 193 W/m 3,6 km/h (1 Bft)
17.05.2012 09:00 6,8 C 84 % 1023,2 hPa 0,0 l/m S-SO 1,00 h 563 W/m 6,7 km/h (2 Bft)
17.05.2012 10:00 8,3 C 69 % 1022,9 hPa 0,0 l/m S-SO 0,33 h 308 W/m 5,7 km/h (1 Bft)
17.05.2012 11:00 9,5 C 61 % 1022,4 hPa 0,0 l/m S-SO 0,42 h 526 W/m 6,8 km/h (2 Bft)
17.05.2012 12:00 11,4 C 49 % 1021,6 hPa 0,0 l/m O 0,67 h 783 W/m 13,6 km/h (3 Bft)
17.05.2012 13:00 12,9 C 44 % 1020,9 hPa 0,0 l/m O-SO 1,00 h 947 W/m 15,7 km/h (3 Bft)
17.05.2012 14:00 13,7 C 41 % 1019,8 hPa 0,0 l/m O-SO 0,83 h 775 W/m 16,6 km/h (3 Bft)
17.05.2012 15:00 14,2 C 40 % 1019,1 hPa 0,0 l/m O-SO 1,00 h 745 W/m 16,1 km/h (3 Bft)
17.05.2012 16:00 14,7 C 40 % 1018,1 hPa 0,0 l/m O 1,00 h 648 W/m 16,8 km/h (3 Bft)
17.05.2012 17:00 15,3 C 39 % 1017,3 hPa 0,0 l/m O 1,00 h 566 W/m 16,8 km/h (3 Bft)
17.05.2012 18:00 14,9 C 40 % 1016,4 hPa 0,0 l/m O 1,00 h 387 W/m 19,0 km/h (3 Bft)
17.05.2012 19:00 13,6 C 45 % 1015,5 hPa 0,0 l/m O-SO 1,00 h 180 W/m 19,3 km/h (3 Bft)
17.05.2012 20:00 11,7 C 50 % 1014,9 hPa 0,0 l/m O-SO 0,08 h 16 W/m 14,4 km/h (3 Bft)
17.05.2012 21:00 10,1 C 54 % 1014,4 hPa 0,0 l/m O 0,00 h 0 W/m 11,3 km/h (2 Bft)
17.05.2012 22:00 9,0 C 57 % 1013,7 hPa 0,0 l/m O 0,00 h 0 W/m 11,7 km/h (2 Bft)
17.05.2012 23:00 7,6 C 65 % 1013,2 hPa 0,0 l/m NO 0,00 h 0 W/m 5,9 km/h (2 Bft)
18.05.2012 00:00 6,3 C 72 % 1012,6 hPa 0,0 l/m NO 0,00 h 0 W/m 2,9 km/h (1 Bft)
18.05.2012 01:00 5,2 C 76 % 1012,2 hPa 0,0 l/m NO 0,00 h 0 W/m 4,1 km/h (1 Bft)
18.05.2012 02:00 5,1 C 77 % 1011,9 hPa 0,0 l/m NO 0,00 h 0 W/m 5,9 km/h (2 Bft)
18.05.2012 03:00 4,8 C 78 % 1011,4 hPa 0,0 l/m N-NO 0,00 h 0 W/m 5,7 km/h (1 Bft)
18.05.2012 04:00 4,6 C 81 % 1011,4 hPa 0,0 l/m N-NO 0,00 h 0 W/m 6,1 km/h (2 Bft)
18.05.2012 05:00 4,9 C 82 % 1011,3 hPa 0,2 l/m N-NW 0,00 h 7 W/m 7,4 km/h (2 Bft)
18.05.2012 06:00 4,9 C 87 % 1010,8 hPa 0,2 l/m NO 0,00 h 22 W/m 3,2 km/h (1 Bft)
18.05.2012 07:00 5,1 C 88 % 1011,0 hPa 0,0 l/m N-NO 0,00 h 31 W/m 5,5 km/h (1 Bft)
18.05.2012 08:00 5,8 C 86 % 1010,7 hPa 0,0 l/m NO 0,17 h 153 W/m 5,5 km/h (1 Bft)
18.05.2012 09:00 8,3 C 79 % 1010,9 hPa 0,0 l/m NO 1,00 h 514 W/m 8,2 km/h (2 Bft)
18.05.2012 10:00 10,9 C 69 % 1011,0 hPa 0,0 l/m N-NO 0,92 h 532 W/m 7,5 km/h (2 Bft)
18.05.2012 11:00 14,1 C 61 % 1010,7 hPa 0,0 l/m SO 1,00 h 785 W/m 6,3 km/h (2 Bft)
18.05.2012 12:00 17,4 C 54 % 1010,4 hPa 0,0 l/m SW 1,00 h 768 W/m 16,1 km/h (3 Bft)
18.05.2012 13:00 18,6 C 53 % 1010,0 hPa 0,0 l/m W-SW 0,50 h 502 W/m 14,6 km/h (3 Bft)
18.05.2012 14:00 19,8 C 50 % 1009,7 hPa 0,0 l/m W-SW 0,92 h 877 W/m 21,6 km/h (4 Bft)
18.05.2012 15:00 20,4 C 45 % 1009,5 hPa 0,0 l/m W-SW 0,67 h 622 W/m 24,4 km/h (4 Bft)
18.05.2012 16:00 19,1 C 50 % 1009,6 hPa 0,0 l/m W 0,00 h 224 W/m 20,0 km/h (4 Bft)
18.05.2012 17:00 18,1 C 55 % 1009,8 hPa 0,0 l/m W-SW 0,17 h 206 W/m 13,7 km/h (3 Bft)
18.05.2012 18:00 17,8 C 59 % 1009,9 hPa 0,0 l/m W 0,00 h 112 W/m 9,3 km/h (2 Bft)
18.05.2012 19:00 16,8 C 65 % 1010,2 hPa 0,2 l/m W 0,00 h 38 W/m 4,5 km/h (1 Bft)
18.05.2012 20:00 14,2 C 85 % 1010,7 hPa 0,4 l/m W-NW 0,00 h 10 W/m 8,7 km/h (2 Bft)
18.05.2012 21:00 13,4 C 90 % 1011,1 hPa 0,0 l/m N 0,00 h 0 W/m 1,6 km/h (1 Bft)
18.05.2012 22:00 12,5 C 93 % 1011,6 hPa 0,0 l/m N 0,00 h 0 W/m 1,1 km/h (0 Bft)
18.05.2012 23:00 12,3 C 94 % 1011,9 hPa 0,0 l/m N 0,00 h 0 W/m 0,7 km/h (0 Bft)
19.05.2012 00:00 11,8 C 95 % 1012,2 hPa 0,0 l/m N 0,00 h 0 W/m 0,4 km/h (0 Bft)
19.05.2012 01:00 11,7 C 95 % 1012,4 hPa 0,0 l/m N 0,00 h 0 W/m 0,1 km/h (0 Bft)
19.05.2012 02:00 11,1 C 96 % 1012,2 hPa 0,0 l/m N 0,00 h 0 W/m 0,4 km/h (0 Bft)
19.05.2012 03:00 10,7 C 97 % 1012,1 hPa 0,0 l/m N 0,00 h 0 W/m 0,3 km/h (0 Bft)
19.05.2012 04:00 10,3 C 98 % 1012,1 hPa 0,0 l/m N 0,00 h 0 W/m 0,7 km/h (0 Bft)
19.05.2012 05:00 9,9 C 98 % 1012,0 hPa 0,0 l/m N 0,00 h 6 W/m 0,0 km/h (0 Bft)
19.05.2012 06:00 9,6 C 98 % 1012,0 hPa 0,0 l/m N 0,00 h 43 W/m 0,4 km/h (0 Bft)
19.05.2012 07:00 11,7 C 96 % 1012,0 hPa 0,0 l/m W-NW 0,92 h 212 W/m 0,8 km/h (0 Bft)
19.05.2012 08:00 13,3 C 87 % 1011,5 hPa 0,0 l/m N 0,08 h 156 W/m 1,7 km/h (1 Bft)
19.05.2012 09:00 15,5 C 79 % 1011,2 hPa 0,0 l/m W-NW 1,00 h 523 W/m 5,3 km/h (1 Bft)
19.05.2012 10:00 18,0 C 67 % 1010,6 hPa 0,0 l/m O-NO 1,00 h 665 W/m 11,0 km/h (2 Bft)
19.05.2012 11:00 19,3 C 62 % 1010,0 hPa 0,0 l/m O-NO 0,83 h 699 W/m 12,8 km/h (3 Bft)
19.05.2012 12:00 20,6 C 56 % 1009,3 hPa 0,0 l/m O 0,83 h 759 W/m 15,2 km/h (3 Bft)
19.05.2012 13:00 22,3 C 50 % 1008,7 hPa 0,0 l/m SO 1,00 h 870 W/m 15,6 km/h (3 Bft)
19.05.2012 14:00 22,9 C 47 % 1008,0 hPa 0,0 l/m O-NO 0,83 h 719 W/m 12,2 km/h (2 Bft)
19.05.2012 15:00 22,4 C 48 % 1007,3 hPa 0,0 l/m O-NO 0,08 h 253 W/m 7,8 km/h (2 Bft)
19.05.2012 16:00 22,3 C 50 % 1006,6 hPa 0,0 l/m NO 0,08 h 267 W/m 9,7 km/h (2 Bft)
19.05.2012 17:00 22,6 C 49 % 1006,3 hPa 0,0 l/m NO 0,17 h 279 W/m 9,8 km/h (2 Bft)
19.05.2012 18:00 22,9 C 48 % 1005,9 hPa 0,0 l/m O-NO 0,92 h 309 W/m 11,2 km/h (2 Bft)
19.05.2012 19:00 21,4 C 54 % 1005,7 hPa 0,0 l/m NO 0,00 h 72 W/m 6,3 km/h (2 Bft)
19.05.2012 20:00 19,1 C 65 % 1005,6 hPa 0,0 l/m N 0,08 h 25 W/m 0,5 km/h (0 Bft)
19.05.2012 21:00 16,9 C 71 % 1005,6 hPa 0,0 l/m N 0,00 h 0 W/m 0,1 km/h (0 Bft)
19.05.2012 22:00 15,0 C 78 % 1005,5 hPa 0,0 l/m N 0,00 h 0 W/m 0,0 km/h (0 Bft)
19.05.2012 23:00 13,8 C 82 % 1005,4 hPa 0,0 l/m N 0,00 h 0 W/m 0,0 km/h (0 Bft)
20.05.2012 00:00 12,6 C 86 % 1005,4 hPa 0,0 l/m N 0,00 h 0 W/m 0,0 km/h (0 Bft)
20.05.2012 01:00 11,5 C 90 % 1005,1 hPa 0,0 l/m N 0,00 h 0 W/m 0,0 km/h (0 Bft)
20.05.2012 02:00 10,9 C 92 % 1005,3 hPa 0,0 l/m N 0,00 h 0 W/m 0,0 km/h (0 Bft)
20.05.2012 03:00 10,1 C 93 % 1005,3 hPa 0,0 l/m N 0,00 h 0 W/m 0,0 km/h (0 Bft)
20.05.2012 04:00 9,6 C 94 % 1005,0 hPa 0,0 l/m NO 0,00 h 0 W/m 0,0 km/h (0 Bft)
20.05.2012 05:00 9,3 C 94 % 1004,8 hPa 0,0 l/m N 0,00 h 8 W/m 2,0 km/h (1 Bft)
20.05.2012 06:00 9,3 C 93 % 1005,0 hPa 0,0 l/m N 0,00 h 33 W/m 1,6 km/h (1 Bft)
20.05.2012 07:00 11,3 C 89 % 1005,0 hPa 0,0 l/m NO 0,92 h 189 W/m 3,6 km/h (1 Bft)
20.05.2012 08:00 14,8 C 79 % 1004,5 hPa 0,0 l/m NO 1,00 h 350 W/m 5,5 km/h (1 Bft)
20.05.2012 09:00 17,5 C 67 % 1004,2 hPa 0,0 l/m O-NO 1,00 h 543 W/m 4,8 km/h (1 Bft)
20.05.2012 10:00 20,4 C 56 % 1003,9 hPa 0,0 l/m O-SO 1,00 h 700 W/m 6,0 km/h (2 Bft)
20.05.2012 11:00 22,5 C 48 % 1003,1 hPa 0,0 l/m O 0,67 h 541 W/m 7,9 km/h (2 Bft)
20.05.2012 12:00 24,7 C 38 % 1002,3 hPa 0,0 l/m O-SO 1,00 h 900 W/m 9,1 km/h (2 Bft)
20.05.2012 13:00 26,0 C 32 % 1001,7 hPa 0,0 l/m W-SW 1,00 h 908 W/m 17,6 km/h (3 Bft)
20.05.2012 14:00 26,8 C 30 % 1001,4 hPa 0,0 l/m W-SW 1,00 h 881 W/m 17,8 km/h (3 Bft)
20.05.2012 15:00 26,5 C 29 % 1001,1 hPa 0,0 l/m SW 0,42 h 418 W/m 14,9 km/h (3 Bft)
20.05.2012 16:00 24,5 C 36 % 1000,9 hPa 0,0 l/m S-SW 0,00 h 125 W/m 9,3 km/h (2 Bft)
20.05.2012 17:00 23,4 C 36 % 1000,4 hPa 0,0 l/m S 0,00 h 90 W/m 13,3 km/h (3 Bft)
20.05.2012 18:00 22,3 C 39 % 1000,0 hPa 0,0 l/m SW 0,00 h 72 W/m 6,8 km/h (2 Bft)
20.05.2012 19:00 21,0 C 44 % 999,6 hPa 0,0 l/m SW 0,00 h 47 W/m 6,0 km/h (2 Bft)
20.05.2012 20:00 19,1 C 53 % 999,5 hPa 0,0 l/m N 0,00 h 15 W/m 1,6 km/h (1 Bft)
20.05.2012 21:00 17,0 C 65 % 999,0 hPa 0,0 l/m N 0,00 h 0 W/m 0,3 km/h (0 Bft)
20.05.2012 22:00 16,2 C 66 % 999,2 hPa 0,0 l/m N 0,00 h 0 W/m 2,0 km/h (1 Bft)
20.05.2012 23:00 15,4 C 68 % 998,6 hPa 0,0 l/m N 0,00 h 0 W/m 1,7 km/h (1 Bft)
Min-Datum _ 14.05.12 20.05.12 20.05.12 - - - - 14.05.12
_ Min-Zeit 06:15 15:00 23:35 - - - - 21:05
Minimum _ 1,4 C 27 % 998,5 hPa - - - - 0,0 km/h (0 Bft)
Max-Datum _ 20.05.12 19.05.12 16.05.12 15.05.12 - 14.05.12 16.05.12 15.05.12
_ Max-Zeit 14:45 06:50 23:50 15:30 - 05:55 13:30 14:20
Maximum _ 27,4 C 99 % 1025,3 hPa 2,2 l/m - 0,08 h 1167 W/m 48,3 km/h
W-SW (6 Bft)
Durchschnitt _ 11,0 C 71 % 1013,0 hPa #5,6 l/m NO #56:30 h 372 W/m 9,1 km/h (2 Bft)